Details From EBLG - Liege
To EBOS - Oostende
Flight Number -
Tags Generated
Created
Modified
Stats Distance 103 nm / 190 km
Max Altitude 0 ft / 0 m
Waypoints 2
Social Downloads 10
Likes 0
Share VATSIM

Download

Looking for another format? Having issues loading an existing format? Contact us
Advertisement - Login to hide

Notes

Generated

Route

EBLG EBOS

ID Type Via Altitude Latitude Longitude Leg Dist Tot Dist Heading (true) Name
O EBLG APT - 0 ft / 0 m 50.63128˚ 5.43014˚ - 0 nm - -
O EBOS APT - 0 ft / 0 m 51.19832˚ 2.86670˚ 102 nm 102 nm 290° / 288° -

Altitude Profile

Advertisement - Login to hide

EBLG

Details ICAO EBLG (LGG)
Name Liege
Region Belgium
Timezone Europe/Brussels (UTC+2.0)
Stats Elevation 645 ft / 197 m (AMSL)
Location 50.638120° 5.443140°
Runways 2
Magnetic Variation 1.486° E

METAR

EBLG 202150Z 12003KT 090V160 9999 FEW040TCU 15/10 Q1019 TEMPO 4500 SHRA

Decode

TAF

TAF EBLG 201720Z 2018/2124 11007KT 9999 FEW040CB TEMPO 2018/2021 VRB15G25KT 3500 SHRA TSRA PROB40 TEMPO 2100/2104 4500 SHRA TEMPO 2102/2107 3000 BR PROB30 TEMPO 2104/2107 1200 BCFG PROB30 TEMPO 2115/2121 VRB15G25KT 4500 SHRA TSRA

Decode

Departure Runways

ID Width Length Bearing (true) Bearing (mag) Surface Threshold Offset Overrun Length
05L 148 ft / 45 m 7,664 ft / 2,336 m 44.99° 43.50° Asphalt 151 ft / 46 m 0 ft / 0 m
05R 148 ft / 45 m 10,792 ft / 3,290 m 44.99° 43.50° Asphalt 151 ft / 46 m 0 ft / 0 m
23L 148 ft / 45 m 10,792 ft / 3,290 m 225.01° 223.52° Asphalt 151 ft / 46 m 0 ft / 0 m
23R 148 ft / 45 m 7,664 ft / 2,336 m 225.01° 223.52° Asphalt 151 ft / 46 m 0 ft / 0 m

EBOS

Details ICAO EBOS (OST)
Name Oostende
Region Belgium
Timezone Europe/Brussels (UTC+2.0)
Stats Elevation 13 ft / 4 m (AMSL)
Location 51.199967° 2.875008°
Runways 1
Magnetic Variation 0.649° E

METAR

EBOS 202150Z 03007KT 6000 FEW020 12/10 Q1020 NOSIG

Decode

TAF

TAF EBOS 201720Z 2018/2124 02010KT 6000 SCT020 TEMPO 2018/2020 4500 BR BKN012 PROB30 TEMPO 2021/2024 4500 SHRA PROB30 TEMPO 2105/2108 4500 SHRA TEMPO 2102/2107 3000 BR PROB30 TEMPO 2104/2107 1200 BCFG PROB30 TEMPO 2115/2121 VRB15G25KT 4500 SHRA TSRA

Decode

Destination Runways

ID Width Length Bearing (true) Bearing (mag) Surface Threshold Offset Overrun Length
08 148 ft / 45 m 10,515 ft / 3,205 m 76.36° 75.71° Asphalt 984 ft / 300 m 0 ft / 0 m
26 148 ft / 45 m 10,515 ft / 3,205 m 256.39° 255.74° Asphalt 1,362 ft / 415 m 0 ft / 0 m

Approach Navaids

Runway Type Ident Frequency Range Bearing (true) Bearing (mag) Slope Elevation
08 Localiser IMI 111.55 MHz 18 nm / 33 km 76.37° 75.72° - 13 ft / 4 m (AMSL)
08 Glidescope IMI 111.55 MHz 10 nm / 19 km 76.37° 75.72° 3.00° 13 ft / 4 m (AMSL)
08 DME IMI 111.55 MHz 18 nm / 33 km - - - 13 ft / 4 m (AMSL)
26 Localiser IOS 109.50 MHz 18 nm / 33 km 256.37° 255.72° - 13 ft / 4 m (AMSL)
26 Glidescope IOS 109.50 MHz 10 nm / 19 km 256.37° 255.72° 3.00° 13 ft / 4 m (AMSL)

Popular Alternatives